This is the latest recevied weather packets stored in our database for station/object K7GFH-13. If no packets are shown the sender has not sent any weather packets the latest 10 day(s).
| Time | Temp. | Humidity | Pressure | Rain* | Wind** | Luminosity | Snow |
|---|---|---|---|---|---|---|---|
| 1777671994 | 20.56° C | 56% | 1017.6 hPa | 0 mm | - | 560 W/m² | - |
| 1777671089 | 20.56° C | 57% | 1017.5 hPa | 0 mm | - | 534 W/m² | - |
| 1777670185 | 20.56° C | 58% | 1017.8 hPa | 0 mm | - | 480 W/m² | - |
| 1777669282 | 20° C | 58% | 1017.8 hPa | 0 mm | - | 588 W/m² | - |
| 1777668379 | 21.11° C | 58% | 1017.9 hPa | 0 mm | - | 518 W/m² | - |
| 1777667475 | 19.44° C | 60% | 1018 hPa | 0 mm | - | 738 W/m² | - |
| 1777666572 | 20° C | 57% | 1018 hPa | 0 mm | - | 700 W/m² | - |
| 1777665669 | 19.44° C | 60% | 1018.1 hPa | 0 mm | - | 629 W/m² | - |
| 1777664769 | 18.89° C | 61% | 1018.2 hPa | 0 mm | - | 647 W/m² | - |
| 1777660263 | 16.67° C | 67% | 1018.6 hPa | 0 mm | - | 615 W/m² | - |
| 1777659359 | 16.11° C | 68% | 1018.8 hPa | 0 mm | - | 561 W/m² | - |
| 1777658455 | 16.11° C | 70% | 1018.7 hPa | 0 mm | - | 572 W/m² | - |
| 1777656649 | 15.56° C | 70% | 1018.9 hPa | 0 mm | - | 543 W/m² | - |
| 1777655749 | 15° C | 73% | 1018.9 hPa | 0 mm | - | 422 W/m² | - |
| 1777651232 | 13.89° C | 76% | 1019.2 hPa | 0 mm | - | 348 W/m² | - |
| 1777650330 | 13.89° C | 76% | 1019.2 hPa | 0 mm | - | 276 W/m² | - |
| 1777649426 | 13.33° C | 78% | 1019.1 hPa | 0 mm | - | 225 W/m² | - |
| 1777648523 | 13.33° C | 78% | 1019.1 hPa | 0 mm | - | 186 W/m² | - |
| 1777647618 | 12.78° C | 79% | 1019.1 hPa | 0 mm | - | 150 W/m² | - |
| 1777646714 | 12.78° C | 78% | 1018.9 hPa | 0 mm | - | 143 W/m² | - |
| 1777645809 | 12.22° C | 80% | 1018.8 hPa | 0 mm | - | 116 W/m² | - |
| 1777644909 | 11.67° C | 81% | 1018.5 hPa | 0 mm | - | 80 W/m² | - |
| 1777644005 | 11.11° C | 82% | 1018.4 hPa | 0 mm | - | 56 W/m² | - |
| 1777642197 | 10.56° C | 82% | 1018 hPa | 0 mm | - | 23 W/m² | - |
| 1777641295 | 10° C | 81% | 1017.8 hPa | 0 mm | - | 12 W/m² | - |
* Rain latest hour (hover to see other rain measurements)
** Current wind speed in m/s (hover to see current wind gust speed)